Time;durP1;ratioP1;P1;durP2;ratioP2;P2;SDS_P1;SDS_P2;PMS_P1;PMS_P2;Temp;Humidity;BMP_temperature;BMP_pressure;BME280_temperature;BME280_humidity;BME280_pressure;Samples;Min_cycle;Max_cycle;Signal;HPM_P1;HPM_P2
2022/06/29 00:03:17;;;;;;;3.08;2.00;;;;;;;16.57;100.00;100599.69;8292825;28;20036;-63
2022/06/29 00:07:17;;;;;;;2.60;1.73;;;;;;;16.67;99.90;100596.72;8293309;28;20042;-63
2022/06/29 00:11:17;;;;;;;5.57;2.42;;;;;;;16.72;100.00;100594.31;8292568;28;20300;-63
2022/06/29 00:15:20;;;;;;;4.75;2.63;;;;;;;16.79;99.69;100589.84;8293400;28;20486;-63
2022/06/29 00:19:20;;;;;;;4.88;2.58;;;;;;;16.91;98.79;100599.34;8292969;28;20124;-63
2022/06/29 00:23:21;;;;;;;4.10;2.45;;;;;;;16.58;100.00;100586.88;8292738;28;20038;-63
2022/06/29 00:27:21;;;;;;;8.23;2.92;;;;;;;16.64;100.00;100588.88;8292689;28;20132;-63
2022/06/29 00:31:22;;;;;;;10.85;2.42;;;;;;;16.81;100.00;100587.78;8338698;28;20053;-63
2022/06/29 00:35:22;;;;;;;2.90;2.40;;;;;;;16.71;100.00;100587.16;8324699;28;20079;-63
2022/06/29 00:39:23;;;;;;;4.45;2.50;;;;;;;16.25;100.00;100586.09;8339536;28;20288;-63
2022/06/29 00:43:24;;;;;;;4.05;2.65;;;;;;;16.18;100.00;100584.25;8323345;28;20502;-63
2022/06/29 00:47:25;;;;;;;2.60;2.40;;;;;;;16.37;100.00;100581.13;8319992;28;20087;-63
2022/06/29 00:51:29;;;;;;;3.63;2.67;;;;;;;16.25;100.00;100590.72;8324089;28;20042;-63
2022/06/29 00:55:35;;;;;;;5.78;2.08;;;;;;;16.21;100.00;100586.63;8324494;28;20041;-63
2022/06/29 00:59:42;;;;;;;5.28;2.38;;;;;;;16.25;100.00;100579.81;8324236;28;20452;-63
2022/06/29 01:03:43;;;;;;;3.50;2.55;;;;;;;16.33;100.00;100572.44;8326884;28;20048;-63
2022/06/29 01:07:44;;;;;;;4.93;2.92;;;;;;;16.15;100.00;100573.69;8330454;28;20121;-63
2022/06/29 01:11:44;;;;;;;7.07;2.80;;;;;;;15.94;100.00;100576.97;8329049;28;20042;-63
2022/06/29 01:15:45;;;;;;;5.85;2.97;;;;;;;15.93;100.00;100575.28;8345392;28;20037;-63
2022/06/29 01:19:45;;;;;;;3.78;2.40;;;;;;;15.84;100.00;100570.00;8329996;28;20537;-63
2022/06/29 01:23:46;;;;;;;5.65;3.22;;;;;;;15.65;100.00;100572.06;8329358;28;20063;-63
2022/06/29 01:27:46;;;;;;;6.07;3.08;;;;;;;15.70;100.00;100572.44;8332492;28;20374;-63
2022/06/29 01:31:53;;;;;;;6.32;3.28;;;;;;;15.59;100.00;100567.31;8336970;28;20040;-63
2022/06/29 01:35:53;;;;;;;6.85;3.10;;;;;;;15.64;100.00;100564.94;8325868;28;20030;-63
2022/06/29 01:39:54;;;;;;;6.00;3.38;;;;;;;15.62;100.00;100566.97;8327785;28;20038;-63
2022/06/29 01:43:54;;;;;;;5.47;3.70;;;;;;;15.65;100.00;100552.16;8328846;28;20113;-63
2022/06/29 01:47:55;;;;;;;6.22;3.40;;;;;;;15.36;100.00;100547.22;8328326;28;20060;-63
2022/06/29 01:51:55;;;;;;;3.72;3.35;;;;;;;15.29;100.00;100543.47;8329582;28;20116;-63
2022/06/29 01:55:56;;;;;;;5.25;3.05;;;;;;;15.35;100.00;100537.34;8328233;28;20075;-63
2022/06/29 01:59:56;;;;;;;7.03;3.50;;;;;;;15.18;100.00;100538.34;8326635;28;20056;-63
2022/06/29 02:03:57;;;;;;;6.47;4.00;;;;;;;15.20;100.00;100543.63;8329085;28;20052;-63
2022/06/29 02:07:57;;;;;;;4.95;3.38;;;;;;;15.26;100.00;100538.38;8344194;28;20282;-63
2022/06/29 02:11:57;;;;;;;7.88;3.88;;;;;;;15.36;100.00;100533.59;8326635;28;20091;-63
2022/06/29 02:15:58;;;;;;;6.00;3.47;;;;;;;15.47;100.00;100524.25;8328108;28;20429;-63
2022/06/29 02:19:58;;;;;;;3.58;3.28;;;;;;;15.53;100.00;100518.94;8327833;28;20280;-63
2022/06/29 02:23:58;;;;;;;4.85;3.72;;;;;;;15.70;100.00;100520.63;8328087;28;20030;-63
2022/06/29 02:27:59;;;;;;;6.13;3.55;;;;;;;15.68;100.00;100528.13;8322398;28;20100;-63
2022/06/29 02:36:20;;;;;;;6.72;3.88;;;;;;;15.73;100.00;100524.06;8326838;28;20037;-63
2022/06/29 02:40:21;;;;;;;3.63;3.10;;;;;;;15.72;100.00;100523.19;8325113;28;20083;-63
2022/06/29 02:44:21;;;;;;;5.60;3.15;;;;;;;15.59;100.00;100528.31;8326670;28;20037;-63
2022/06/29 02:48:21;;;;;;;4.10;3.17;;;;;;;15.53;100.00;100527.13;8327635;28;20041;-63
2022/06/29 02:52:22;;;;;;;7.07;3.42;;;;;;;15.24;100.00;100520.47;8327101;28;20041;-63
2022/06/29 02:56:22;;;;;;;4.60;3.08;;;;;;;15.08;100.00;100529.50;8355301;28;20047;-63
2022/06/29 03:00:23;;;;;;;8.80;3.22;;;;;;;15.06;100.00;100517.91;8332054;28;20046;-63
2022/06/29 03:04:23;;;;;;;3.70;2.97;;;;;;;15.05;100.00;100520.81;8327535;28;20068;-63
2022/06/29 03:08:23;;;;;;;7.60;3.30;;;;;;;14.95;100.00;100515.50;8342636;28;20045;-63
2022/06/29 03:12:24;;;;;;;5.85;3.13;;;;;;;14.92;100.00;100504.13;8327125;28;20065;-63
2022/06/29 03:16:24;;;;;;;6.55;3.30;;;;;;;14.99;100.00;100514.19;8323438;28;20118;-63
2022/06/29 03:20:25;;;;;;;5.55;2.95;;;;;;;14.99;100.00;100514.19;8326874;28;20069;-63
2022/06/29 03:24:25;;;;;;;8.20;3.35;;;;;;;14.96;100.00;100511.78;8327333;28;20038;-62
2022/06/29 03:28:25;;;;;;;6.30;3.22;;;;;;;14.93;100.00;100501.22;8323569;28;20044;-62
2022/06/29 03:32:26;;;;;;;7.45;3.10;;;;;;;14.83;100.00;100497.84;8323733;28;20863;-62
2022/06/29 03:36:26;;;;;;;6.87;3.00;;;;;;;14.73;100.00;100497.09;8341654;28;20045;-62
2022/06/29 03:40:27;;;;;;;6.30;2.80;;;;;;;14.64;100.00;100478.22;8325849;28;20260;-62
2022/06/29 03:44:27;;;;;;;9.50;3.10;;;;;;;14.69;100.00;100484.88;8326520;28;20268;-63
2022/06/29 03:48:27;;;;;;;5.88;3.03;;;;;;;14.91;100.00;100483.38;8326595;28;20034;-63
2022/06/29 03:52:28;;;;;;;6.05;3.10;;;;;;;14.94;100.00;100483.88;8326220;28;20037;-62
2022/06/29 03:56:28;;;;;;;8.35;3.80;;;;;;;15.00;100.00;100483.19;8325951;28;20508;-62
2022/06/29 04:00:28;;;;;;;6.72;2.97;;;;;;;15.12;100.00;100476.38;8320305;28;20075;-62
2022/06/29 04:04:29;;;;;;;10.93;3.00;;;;;;;15.19;100.00;100480.13;8293015;28;20486;-62
2022/06/29 04:08:29;;;;;;;5.15;2.80;;;;;;;15.35;100.00;100473.81;8286879;28;20045;-63
2022/06/29 04:12:31;;;;;;;3.92;2.55;;;;;;;15.26;100.00;100478.44;8292082;28;20042;-62
2022/06/29 04:16:32;;;;;;;6.82;2.67;;;;;;;15.36;100.00;100483.69;8290578;28;20396;-62
2022/06/29 04:21:32;;;;;;;7.25;2.95;;;;;;;15.41;100.00;100484.06;8292400;28;20040;-63
2022/06/29 04:24:52;;;;;;;7.38;2.55;;;;;;;15.56;100.00;100469.53;8325047;28;20037;-63
2022/06/29 04:28:53;;;;;;;4.70;2.75;;;;;;;15.63;100.00;100470.56;8324204;28;20080;-63
2022/06/29 04:32:54;;;;;;;5.28;2.45;;;;;;;15.75;100.00;100473.78;8323439;28;20366;-62
2022/06/29 04:36:55;;;;;;;5.70;3.20;;;;;;;15.99;100.00;100473.69;8320476;28;20037;-63
2022/06/29 04:40:55;;;;;;;6.95;2.42;;;;;;;16.29;100.00;100467.44;8324015;28;20059;-63
2022/06/29 04:44:56;;;;;;;3.13;2.60;;;;;;;16.03;100.00;100466.84;8345077;28;20036;-63
2022/06/29 04:48:59;;;;;;;6.05;2.45;;;;;;;16.02;100.00;100473.34;8312374;28;20304;-63
2022/06/29 04:52:59;;;;;;;13.65;2.50;;;;;;;16.16;100.00;100464.41;8331085;28;20037;-63
2022/06/29 04:57:00;;;;;;;2.90;2.55;;;;;;;16.29;100.00;100472.03;8317737;28;20042;-63
2022/06/29 05:01:00;;;;;;;5.40;2.20;;;;;;;16.31;100.00;100461.78;8330301;28;20108;-63
2022/06/29 05:05:00;;;;;;;5.13;2.50;;;;;;;16.27;100.00;100464.03;8330830;28;20038;-63
2022/06/29 05:09:01;;;;;;;8.05;2.75;;;;;;;16.34;100.00;100475.06;8328959;28;20026;-63
2022/06/29 05:13:01;;;;;;;7.55;2.38;;;;;;;16.20;100.00;100473.09;8330498;28;20048;-63
2022/06/29 05:17:02;;;;;;;8.35;2.65;;;;;;;16.23;100.00;100478.19;8330871;28;20061;-63
2022/06/29 05:21:03;;;;;;;6.55;2.80;;;;;;;16.27;100.00;100468.63;8329879;28;20498;-63
2022/06/29 05:25:06;;;;;;;8.27;2.60;;;;;;;16.41;100.00;100467.88;8330333;28;20033;-63
2022/06/29 05:29:06;;;;;;;14.48;4.07;;;;;;;16.54;100.00;100470.88;8328264;28;20037;-63
2022/06/29 05:33:07;;;;;;;9.50;3.80;;;;;;;16.51;100.00;100461.19;8329498;28;20091;-63
2022/06/29 05:37:07;;;;;;;3.60;2.70;;;;;;;16.76;100.00;100461.88;8329055;28;20633;-63
2022/06/29 05:41:07;;;;;;;8.68;3.38;;;;;;;16.98;100.00;100463.75;8327949;28;20041;-63
2022/06/29 05:45:09;;;;;;;8.50;3.15;;;;;;;17.00;100.00;100468.00;8344874;28;20033;-63
2022/06/29 05:49:09;;;;;;;7.00;3.05;;;;;;;17.18;100.00;100464.94;8323249;28;20095;-63
2022/06/29 05:53:10;;;;;;;6.40;3.10;;;;;;;17.29;100.00;100462.63;8313843;28;20372;-63
2022/06/29 05:57:10;;;;;;;6.47;3.03;;;;;;;17.37;100.00;100457.09;8334422;28;20371;-63
2022/06/29 06:01:10;;;;;;;8.50;2.90;;;;;;;17.34;100.00;100459.31;8321877;28;20616;-63
2022/06/29 06:05:11;;;;;;;10.57;3.25;;;;;;;17.31;99.89;100449.63;8337954;28;20037;-63
2022/06/29 06:09:11;;;;;;;10.07;3.10;;;;;;;17.38;99.15;100452.44;8322769;28;20402;-63
2022/06/29 06:13:12;;;;;;;7.97;3.30;;;;;;;17.45;99.30;100450.72;8325414;28;20047;-63
2022/06/29 06:17:12;;;;;;;6.27;2.70;;;;;;;17.54;100.00;100449.59;8324799;28;20065;-63
2022/06/29 06:21:13;;;;;;;7.90;3.20;;;;;;;17.54;98.87;100449.59;8324556;28;20675;-63
2022/06/29 06:25:14;;;;;;;5.68;2.90;;;;;;;17.56;98.71;100450.25;8323158;28;20037;-63
2022/06/29 06:29:14;;;;;;;7.45;3.20;;;;;;;17.78;99.71;100457.50;8324090;28;20049;-63
2022/06/29 06:33:15;;;;;;;10.68;3.40;;;;;;;17.72;100.00;100452.81;8324072;28;20037;-63
2022/06/29 06:37:16;;;;;;;6.78;3.30;;;;;;;17.80;100.00;100455.44;8318870;28;20391;-63
2022/06/29 06:41:25;;;;;;;6.30;3.03;;;;;;;17.87;100.00;100456.38;8322881;28;20091;-63
2022/06/29 06:45:25;;;;;;;6.38;2.65;;;;;;;18.00;100.00;100456.59;8323374;28;20041;-63
2022/06/29 06:49:27;;;;;;;9.40;2.97;;;;;;;17.94;100.00;100460.09;8323627;28;20037;-63
2022/06/29 06:53:27;;;;;;;6.75;2.95;;;;;;;17.95;100.00;100461.78;8323863;28;20045;-63
2022/06/29 06:57:27;;;;;;;10.23;2.80;;;;;;;18.20;99.44;100452.22;8321024;28;20130;-63
2022/06/29 07:01:28;;;;;;;3.38;2.58;;;;;;;18.28;100.00;100454.00;8322555;28;20263;-63
2022/06/29 07:05:28;;;;;;;3.70;2.80;;;;;;;18.28;100.00;100452.13;8322407;28;20486;-63
2022/06/29 07:09:28;;;;;;;8.03;2.63;;;;;;;18.30;99.70;100450.03;8314002;28;20184;-63
2022/06/29 07:13:29;;;;;;;5.82;2.75;;;;;;;18.45;98.02;100450.88;8322832;28;20267;-63
2022/06/29 07:17:30;;;;;;;5.78;2.55;;;;;;;18.40;97.18;100447.88;8285254;28;20054;-63
2022/06/29 07:21:30;;;;;;;3.47;2.25;;;;;;;18.39;97.12;100446.16;8308398;28;20481;-63
2022/06/29 07:25:31;;;;;;;9.38;2.50;;;;;;;18.62;98.61;100451.50;8290416;28;20034;-63
2022/06/29 07:29:31;;;;;;;6.30;2.38;;;;;;;18.63;96.84;100464.97;8289162;28;20060;-63
2022/06/29 07:33:31;;;;;;;8.65;2.47;;;;;;;18.62;95.96;100454.22;8289574;28;20037;-63
2022/06/29 07:37:32;;;;;;;9.03;2.37;;;;;;;18.80;98.27;100452.75;8289755;28;20038;-63
2022/06/29 07:41:32;;;;;;;3.03;2.10;;;;;;;18.94;94.39;100446.34;8282310;28;20444;-63
2022/06/29 07:45:32;;;;;;;6.43;2.22;;;;;;;19.08;94.71;100448.19;8284940;28;20300;-63
2022/06/29 07:49:33;;;;;;;4.65;2.00;;;;;;;19.17;93.93;100449.75;8279083;28;20097;-63
2022/06/29 07:53:33;;;;;;;5.57;2.20;;;;;;;19.27;90.32;100452.16;8298248;28;20068;-63
2022/06/29 07:57:34;;;;;;;6.35;1.83;;;;;;;19.48;90.56;100461.22;8278010;28;20128;-63
2022/06/29 08:01:35;;;;;;;5.88;2.40;;;;;;;19.64;92.79;100448.25;8283928;28;20045;-63
2022/06/29 08:05:36;;;;;;;6.72;1.92;;;;;;;19.58;91.07;100449.91;8287670;28;20038;-63
2022/06/29 08:09:36;;;;;;;6.55;2.30;;;;;;;19.65;90.78;100445.31;8287482;28;20098;-63
2022/06/29 08:13:38;;;;;;;8.95;2.47;;;;;;;19.71;92.77;100449.13;8292480;28;20037;-63
2022/06/29 08:17:38;;;;;;;4.70;2.42;;;;;;;19.69;91.57;100451.22;8298739;28;20042;-63
2022/06/29 08:21:38;;;;;;;3.63;2.30;;;;;;;19.63;93.04;100455.59;8298308;28;20498;-63
2022/06/29 08:25:39;;;;;;;6.83;2.50;;;;;;;19.80;93.89;100450.66;8324445;28;20033;-63
2022/06/29 08:29:40;;;;;;;3.75;2.00;;;;;;;19.84;93.01;100449.19;8357562;28;20299;-63
2022/06/29 08:33:40;;;;;;;6.40;2.55;;;;;;;19.84;92.36;100454.69;8328715;28;20095;-63
2022/06/29 08:37:41;;;;;;;3.83;2.05;;;;;;;19.97;92.33;100446.56;8330543;28;20045;-63
2022/06/29 08:41:43;;;;;;;5.22;2.15;;;;;;;20.08;89.50;100459.69;8342693;28;20038;-63
2022/06/29 08:45:46;;;;;;;6.25;2.70;;;;;;;20.20;87.55;100447.13;8331160;28;20039;-63
2022/06/29 08:49:46;;;;;;;5.35;2.33;;;;;;;20.32;85.44;100456.47;8329246;28;20398;-63
2022/06/29 08:53:49;;;;;;;6.03;2.40;;;;;;;20.41;84.86;100457.97;8330610;28;20052;-63
2022/06/29 08:57:50;;;;;;;6.47;2.22;;;;;;;20.54;85.42;100463.50;8331657;28;20402;-63
2022/06/29 09:01:51;;;;;;;10.68;2.35;;;;;;;20.80;85.17;100461.69;8330065;28;20060;-63
2022/06/29 09:05:54;;;;;;;6.18;2.10;;;;;;;21.18;81.05;100451.00;8323683;28;20065;-63
2022/06/29 09:09:57;;;;;;;6.63;2.30;;;;;;;21.34;79.76;100461.59;8323929;28;20549;-63
2022/06/29 09:14:11;;;;;;;6.80;1.90;;;;;;;21.30;76.09;100457.56;8329654;28;20041;-63
2022/06/29 09:18:31;;;;;;;9.57;1.73;;;;;;;21.37;76.88;100457.59;8328663;28;20052;-63
2022/06/29 09:22:31;;;;;;;4.50;2.05;;;;;;;21.55;75.12;100463.25;8317646;28;20073;-63
2022/06/29 09:26:32;;;;;;;9.02;2.35;;;;;;;21.83;75.56;100455.66;8325147;28;20033;-63
2022/06/29 09:30:36;;;;;;;8.02;1.98;;;;;;;21.97;74.96;100460.91;8321376;28;20041;-63
2022/06/29 09:34:41;;;;;;;4.85;2.13;;;;;;;22.06;74.21;100456.03;8326297;28;20042;-63
2022/06/29 09:38:41;;;;;;;8.40;2.38;;;;;;;22.57;73.06;100455.00;8317726;28;20033;-63
2022/06/29 09:42:41;;;;;;;5.30;1.95;;;;;;;22.93;73.27;100455.22;8324620;28;20045;-63
2022/06/29 09:46:42;;;;;;;6.90;1.90;;;;;;;22.98;71.71;100460.91;8324066;28;20456;-63
2022/06/29 09:50:42;;;;;;;3.08;1.40;;;;;;;22.85;69.36;100461.00;8322385;28;20349;-63
2022/06/29 09:54:55;;;;;;;6.53;1.55;;;;;;;22.92;69.91;100459.03;8323405;28;20053;-63
2022/06/29 09:58:58;;;;;;;2.50;1.37;;;;;;;23.16;67.45;100449.97;8322853;28;20494;-63
2022/06/29 10:03:00;;;;;;;4.57;1.60;;;;;;;23.13;67.90;100444.91;8323132;28;20037;-63
2022/06/29 10:07:02;;;;;;;10.45;1.60;;;;;;;23.00;66.89;100456.00;8322141;28;20051;-63
2022/06/29 10:20:46;;;;;;;4.40;1.92;;;;;;;23.46;70.50;100449.34;8328537;27;20397;-62
2022/06/29 10:25:04;;;;;;;5.63;1.95;;;;;;;24.01;68.19;100456.69;8316685;28;20037;-62
2022/06/29 10:33:33;;;;;;;8.05;2.03;;;;;;;24.65;68.23;100440.41;8390766;27;20369;-62
2022/06/29 10:37:45;;;;;;;2.97;1.45;;;;;;;27.09;63.59;100431.78;8385665;28;20525;-62
2022/06/29 10:43:20;;;;;;;7.93;1.35;;;;;;;29.59;54.90;100426.88;8384392;28;20378;-62
2022/06/29 10:46:09;;;;;;;5.15;1.33;;;;;;;29.80;54.26;100434.31;8379388;28;20163;-62
2022/06/29 10:54:30;;;;;;;8.23;1.50;;;;;;;29.60;51.66;100428.53;8391880;27;20896;-63
2022/06/29 10:58:33;;;;;;;4.35;1.13;;;;;;;29.75;49.99;100417.53;8376856;28;20072;-62
2022/06/29 11:02:35;;;;;;;1.63;1.05;;;;;;;27.61;53.28;100416.59;8372936;28;20408;-62
2022/06/29 11:15:45;;;;;;;4.30;1.25;;;;;;;31.55;46.30;100394.19;8393875;27;20385;-62
2022/06/29 11:19:35;;;;;;;4.72;1.40;;;;;;;32.32;47.39;100386.19;8385663;28;20033;-62
2022/06/29 11:23:35;;;;;;;4.25;1.10;;;;;;;33.47;44.32;100388.31;8383436;28;20037;-62
2022/06/29 11:27:38;;;;;;;1.13;1.00;;;;;;;32.63;44.46;100390.56;8373533;28;20508;-62
2022/06/29 11:31:38;;;;;;;2.22;1.40;;;;;;;32.79;43.45;100385.69;8377339;28;20041;-62
2022/06/29 11:35:39;;;;;;;3.50;1.65;;;;;;;33.23;44.60;100380.91;8376636;28;20032;-62
2022/06/29 11:39:45;;;;;;;8.68;2.72;;;;;;;32.30;47.13;100377.25;8379088;28;20501;-62
2022/06/29 11:43:56;;;;;;;8.25;2.70;;;;;;;32.11;47.90;100373.41;8378935;28;20112;-62
2022/06/29 11:47:56;;;;;;;5.13;2.75;;;;;;;32.27;47.41;100369.41;8379485;28;20087;-62
2022/06/29 11:51:57;;;;;;;6.37;2.63;;;;;;;30.84;49.41;100367.28;8378845;28;20497;-62
2022/06/29 11:55:57;;;;;;;6.90;2.40;;;;;;;31.73;48.61;100355.28;8378801;28;20047;-62
2022/06/29 12:00:08;;;;;;;5.25;2.78;;;;;;;32.49;47.03;100352.25;8376419;28;20352;-62
2022/06/29 12:04:09;;;;;;;9.18;3.42;;;;;;;30.91;49.17;100351.94;8362302;28;20037;-62
2022/06/29 12:08:09;;;;;;;6.20;2.78;;;;;;;30.68;49.76;100351.59;8373919;28;20067;-62
2022/06/29 12:12:11;;;;;;;3.83;2.90;;;;;;;31.23;49.40;100338.56;8375970;28;20108;-62
2022/06/29 12:16:13;;;;;;;5.40;2.78;;;;;;;29.53;49.82;100344.34;8376538;28;20072;-62
2022/06/29 12:20:13;;;;;;;6.47;2.50;;;;;;;28.56;52.69;100342.88;8381012;28;20097;-61
2022/06/29 12:24:14;;;;;;;10.98;2.78;;;;;;;28.00;52.92;100338.56;8367928;28;20041;-61
2022/06/29 12:28:14;;;;;;;4.75;2.50;;;;;;;27.90;52.82;100334.84;8354068;28;20041;-61
2022/06/29 12:32:15;;;;;;;3.30;1.98;;;;;;;27.86;52.84;100326.16;8350484;28;20113;-61
2022/06/29 12:36:15;;;;;;;5.40;2.15;;;;;;;28.19;53.08;100333.53;8352164;28;20529;-61
2022/06/29 12:40:16;;;;;;;3.70;2.20;;;;;;;27.43;54.96;100325.22;8353474;28;20476;-61
2022/06/29 12:44:16;;;;;;;5.85;2.78;;;;;;;27.39;54.36;100324.91;8353756;28;20032;-61
2022/06/29 12:48:18;;;;;;;5.13;2.47;;;;;;;27.98;53.59;100314.91;8354855;28;20116;-61
2022/06/29 12:52:18;;;;;;;6.43;2.50;;;;;;;27.75;52.98;100306.81;8355120;28;20348;-61
2022/06/29 12:56:19;;;;;;;3.22;2.17;;;;;;;27.55;53.08;100307.34;8354283;28;20128;-61
2022/06/29 13:00:19;;;;;;;4.47;2.30;;;;;;;27.68;52.37;100295.00;8356073;28;20330;-62
2022/06/29 13:04:20;;;;;;;5.05;2.08;;;;;;;27.35;51.80;100295.13;8358691;28;20041;-61
2022/06/29 13:08:20;;;;;;;3.83;1.63;;;;;;;27.23;51.54;100302.66;8359787;28;20036;-62
2022/06/29 13:12:21;;;;;;;6.80;1.42;;;;;;;27.37;53.17;100287.34;8391255;28;20390;-61
2022/06/29 13:16:22;;;;;;;6.10;1.75;;;;;;;27.34;50.91;100283.16;8359278;28;20048;-61
2022/06/29 13:20:22;;;;;;;6.80;2.27;;;;;;;27.65;53.23;100279.72;8355086;28;20512;-61
2022/06/29 13:24:23;;;;;;;8.05;2.47;;;;;;;27.46;52.61;100274.72;8354544;28;20383;-62
2022/06/29 13:28:26;;;;;;;5.22;2.25;;;;;;;27.59;53.48;100274.31;8357409;28;20037;-62
2022/06/29 13:32:26;;;;;;;6.82;2.22;;;;;;;27.64;52.74;100274.41;8359454;28;20079;-62
2022/06/29 13:36:27;;;;;;;7.28;2.00;;;;;;;28.15;54.33;100279.53;8358495;28;20106;-62
2022/06/29 13:40:27;;;;;;;4.50;2.40;;;;;;;27.88;52.97;100273.09;8358924;28;20128;-61
2022/06/29 13:44:27;;;;;;;5.05;1.90;;;;;;;28.11;50.37;100262.53;8359429;28;20267;-61
2022/06/29 13:48:28;;;;;;;5.22;2.03;;;;;;;27.86;50.68;100266.94;8358160;28;20094;-61
2022/06/29 13:52:28;;;;;;;5.13;1.98;;;;;;;27.76;51.93;100264.00;8355512;28;20040;-61
2022/06/29 13:56:29;;;;;;;7.13;1.88;;;;;;;27.84;50.81;100269.13;8352620;28;20095;-61
2022/06/29 14:00:29;;;;;;;4.18;1.60;;;;;;;27.85;50.45;100263.31;8356647;28;20143;-61
2022/06/29 14:04:30;;;;;;;5.35;1.60;;;;;;;27.78;49.16;100256.25;8354994;28;20048;-61
2022/06/29 14:08:30;;;;;;;2.97;1.33;;;;;;;27.80;50.40;100266.00;8354419;28;20048;-61
2022/06/29 14:12:31;;;;;;;1.95;1.15;;;;;;;27.81;49.26;100261.31;8354839;28;20549;-61
2022/06/29 14:16:31;;;;;;;2.15;1.23;;;;;;;27.73;48.80;100264.53;8355446;28;20037;-61
2022/06/29 14:20:32;;;;;;;4.53;1.27;;;;;;;28.18;50.67;100254.00;8355407;28;20338;-61
2022/06/29 14:24:32;;;;;;;2.20;1.10;;;;;;;27.93;47.66;100245.38;8353702;28;20074;-61
2022/06/29 14:28:33;;;;;;;3.47;1.10;;;;;;;27.64;48.38;100238.28;8351605;28;20040;-61
2022/06/29 14:32:33;;;;;;;4.53;1.10;;;;;;;27.63;48.38;100247.72;8349982;28;20040;-61
2022/06/29 14:36:33;;;;;;;3.00;1.20;;;;;;;27.86;48.27;100233.59;8344197;28;20275;-61
2022/06/29 14:40:35;;;;;;;2.90;0.93;;;;;;;27.67;49.33;100235.00;8347468;28;20859;-61
2022/06/29 14:44:35;;;;;;;3.78;0.93;;;;;;;27.51;48.47;100233.13;8345803;28;20028;-61
2022/06/29 14:48:35;;;;;;;3.83;0.80;;;;;;;27.88;48.76;100217.50;8358254;28;20047;-61
2022/06/29 14:52:36;;;;;;;3.58;0.90;;;;;;;28.00;48.03;100220.97;8352627;28;20351;-61
2022/06/29 14:56:37;;;;;;;4.30;1.20;;;;;;;27.84;49.48;100219.91;8351618;28;20064;-61
2022/06/29 15:00:37;;;;;;;2.20;1.05;;;;;;;27.75;49.87;100212.31;8350042;28;20566;-61
2022/06/29 15:04:38;;;;;;;2.00;1.30;;;;;;;27.97;48.83;100215.94;8351157;28;20067;-61
2022/06/29 15:08:40;;;;;;;1.30;0.90;;;;;;;27.96;48.68;100203.16;8350515;28;20740;-61
2022/06/29 15:12:40;;;;;;;2.85;1.10;;;;;;;27.69;48.46;100214.19;8347820;28;20037;-61
2022/06/29 15:16:40;;;;;;;4.30;1.50;;;;;;;27.85;49.34;100206.88;8350196;28;20051;-61
2022/06/29 15:20:41;;;;;;;1.27;1.07;;;;;;;27.82;48.48;100208.25;8348040;28;20041;-61
2022/06/29 15:24:41;;;;;;;4.07;0.93;;;;;;;27.61;48.42;100202.69;8347594;28;20283;-61
2022/06/29 15:28:42;;;;;;;1.60;1.00;;;;;;;27.87;48.97;100199.16;8341086;28;20033;-61
2022/06/29 15:32:43;;;;;;;4.63;1.40;;;;;;;27.87;49.90;100199.16;8367999;28;20036;-61
2022/06/29 15:41:03;;;;;;;3.53;1.30;;;;;;;27.71;50.98;100183.34;8344622;28;20040;-61
2022/06/29 15:45:05;;;;;;;4.38;1.85;;;;;;;27.98;51.71;100173.13;8336425;28;20067;-61
2022/06/29 15:49:05;;;;;;;2.33;1.20;;;;;;;27.96;50.07;100176.19;8335542;28;20507;-61
2022/06/29 15:57:26;;;;;;;3.08;1.40;;;;;;;27.80;49.98;100187.34;8335600;28;20298;-61
2022/06/29 16:01:27;;;;;;;2.50;1.25;;;;;;;27.65;49.07;100178.84;8342989;28;20258;-61
2022/06/29 16:05:28;;;;;;;3.33;1.52;;;;;;;27.75;49.32;100178.97;8345183;28;20494;-61
2022/06/29 16:09:29;;;;;;;2.65;1.25;;;;;;;27.60;49.21;100170.47;8345790;28;20552;-61
2022/06/29 16:13:30;;;;;;;1.95;1.20;;;;;;;27.66;49.50;100164.69;8347194;28;20523;-61
2022/06/29 16:17:33;;;;;;;2.88;1.50;;;;;;;27.71;49.55;100156.41;8346191;28;20037;-61
2022/06/29 16:21:33;;;;;;;2.45;1.20;;;;;;;27.83;50.25;100159.03;8346976;28;20133;-61
2022/06/29 16:25:33;;;;;;;1.85;1.38;;;;;;;27.88;50.17;100156.34;8343815;28;20033;-61
2022/06/29 16:29:35;;;;;;;2.35;1.27;;;;;;;27.86;49.74;100144.66;8343388;28;20175;-61
2022/06/29 16:33:35;;;;;;;5.20;1.70;;;;;;;27.71;50.98;100148.09;8346821;28;20048;-61
2022/06/29 16:37:35;;;;;;;2.33;1.63;;;;;;;27.78;51.64;100139.56;8348179;28;20048;-61
2022/06/29 16:41:36;;;;;;;3.55;1.70;;;;;;;27.87;51.81;100143.56;8350961;28;20272;-61
2022/06/29 16:45:36;;;;;;;2.42;1.77;;;;;;;27.80;52.47;100148.44;8353477;28;20139;-61
2022/06/29 16:49:37;;;;;;;6.43;2.10;;;;;;;27.69;53.39;100141.13;8356698;28;20045;-61
2022/06/29 16:53:37;;;;;;;5.10;1.63;;;;;;;27.72;51.80;100140.59;8357756;28;20041;-61
2022/06/29 16:57:38;;;;;;;2.70;2.00;;;;;;;27.65;52.29;100138.00;8356253;28;20059;-61
2022/06/29 17:01:39;;;;;;;10.30;2.45;;;;;;;27.59;52.84;100133.50;8355940;28;20040;-61
2022/06/29 17:05:40;;;;;;;4.80;1.95;;;;;;;27.65;53.54;100126.06;8356128;28;20083;-61
2022/06/29 17:09:40;;;;;;;5.75;2.22;;;;;;;27.69;51.86;100127.22;8354259;28;20390;-61
2022/06/29 17:13:41;;;;;;;8.03;2.30;;;;;;;27.57;52.88;100132.09;8352673;28;20091;-61
2022/06/29 17:17:41;;;;;;;5.07;2.40;;;;;;;27.51;53.11;100133.13;8357425;28;20279;-61
2022/06/29 17:21:41;;;;;;;6.93;2.23;;;;;;;27.54;53.48;100127.06;8355323;28;20035;-61
2022/06/29 17:25:42;;;;;;;2.13;1.77;;;;;;;27.51;53.06;100127.56;8347442;28;20037;-61
2022/06/29 17:29:42;;;;;;;9.18;2.70;;;;;;;27.47;52.79;100120.88;8355681;28;20306;-61
2022/06/29 17:33:42;;;;;;;3.20;1.83;;;;;;;27.54;53.08;100115.94;8353005;28;20067;-61
2022/06/29 17:37:43;;;;;;;3.47;2.57;;;;;;;27.43;53.31;100114.13;8348280;28;20033;-61
2022/06/29 17:41:43;;;;;;;6.60;2.08;;;;;;;27.43;53.85;100108.59;8351614;28;20290;-63
2022/06/29 17:45:44;;;;;;;4.87;2.37;;;;;;;27.41;52.57;100105.25;8354691;28;20028;-63
2022/06/29 17:49:44;;;;;;;3.92;2.45;;;;;;;27.31;53.27;100105.09;8353607;28;20788;-63
2022/06/29 17:53:44;;;;;;;5.70;3.07;;;;;;;27.21;53.70;100116.06;8352799;28;20047;-63
2022/06/29 17:57:45;;;;;;;6.00;2.15;;;;;;;27.08;54.00;100099.78;8354678;28;20268;-63
2022/06/29 18:01:45;;;;;;;5.87;2.20;;;;;;;26.99;54.28;100095.78;8356363;28;20025;-63
2022/06/29 18:05:46;;;;;;;3.30;2.13;;;;;;;26.96;54.67;100097.16;8356404;28;20279;-63
2022/06/29 18:09:49;;;;;;;5.00;1.77;;;;;;;26.95;53.87;100091.84;8349233;28;20405;-63
2022/06/29 18:13:49;;;;;;;3.67;1.92;;;;;;;26.72;55.05;100102.06;8355869;28;20087;-63
2022/06/29 18:17:50;;;;;;;2.83;1.85;;;;;;;26.78;55.26;100089.13;8347974;28;20025;-63
2022/06/29 18:21:50;;;;;;;2.50;1.90;;;;;;;26.74;55.54;100094.34;8346586;28;20581;-63
2022/06/29 18:25:50;;;;;;;5.27;2.40;;;;;;;26.61;57.27;100089.13;8349871;28;20560;-63
2022/06/29 18:29:51;;;;;;;8.30;2.10;;;;;;;26.60;56.12;100089.38;8347323;28;20041;-63
2022/06/29 18:33:52;;;;;;;3.95;2.15;;;;;;;26.66;55.83;100093.94;8349393;28;20505;-63
2022/06/29 18:37:53;;;;;;;7.35;2.10;;;;;;;26.56;57.81;100091.81;8348519;28;20048;-63
2022/06/29 18:41:53;;;;;;;20.00;3.00;;;;;;;26.33;59.57;100093.94;8348611;28;20449;-63
2022/06/29 18:45:54;;;;;;;35.10;4.80;;;;;;;26.04;60.92;100098.72;8341000;28;20283;-63
2022/06/29 18:49:54;;;;;;;21.45;3.75;;;;;;;25.67;62.47;100093.88;8342457;28;20069;-63
2022/06/29 18:53:55;;;;;;;7.25;2.63;;;;;;;25.30;63.81;100096.16;8343067;28;20041;-63
2022/06/29 18:57:55;;;;;;;7.78;2.80;;;;;;;24.92;66.76;100098.69;8341754;28;20044;-63
2022/06/29 19:01:55;;;;;;;9.13;2.33;;;;;;;24.83;67.43;100100.16;8342725;28;20106;-63
2022/06/29 19:05:56;;;;;;;6.03;2.28;;;;;;;24.83;67.08;100100.16;8340757;28;20044;-63
2022/06/29 19:09:56;;;;;;;3.83;2.30;;;;;;;24.66;68.00;100110.25;8332307;28;20370;-63
2022/06/29 19:13:57;;;;;;;7.47;2.30;;;;;;;24.54;68.77;100099.19;8334401;28;20573;-63
2022/06/29 19:17:57;;;;;;;5.40;2.28;;;;;;;24.15;73.36;100096.28;8332678;28;20222;-63